createdAt,value
2022-12-11T00:02:08.949Z,1.00
2022-12-11T00:04:37.766Z,0.90
2022-12-11T00:07:09.963Z,0.90
2022-12-11T00:09:37.727Z,1.00
2022-12-11T00:12:07.527Z,1.00
2022-12-11T00:14:40.806Z,1.00
2022-12-11T00:17:13.263Z,1.00
2022-12-11T00:19:44.385Z,1.10
2022-12-11T00:22:11.921Z,1.10
2022-12-11T00:24:39.342Z,1.20
2022-12-11T00:27:09.781Z,1.10
2022-12-11T00:29:37.571Z,1.10
2022-12-11T00:32:05.328Z,1.20
2022-12-11T00:34:32.676Z,1.20
2022-12-11T00:37:03.345Z,1.20
2022-12-11T00:39:31.074Z,1.20
2022-12-11T00:42:00.975Z,1.20
2022-12-11T00:44:28.408Z,1.30
2022-12-11T00:46:57.134Z,1.20
2022-12-11T00:49:24.621Z,1.30
2022-12-11T00:51:52.514Z,1.30
2022-12-11T00:54:28.882Z,1.30
2022-12-11T00:56:58.637Z,1.30
2022-12-11T00:59:28.505Z,1.40
2022-12-11T01:02:01.936Z,1.40
2022-12-11T01:04:29.458Z,1.40
2022-12-11T01:06:58.027Z,1.40
2022-12-11T01:09:44.170Z,1.60
2022-12-11T01:12:18.105Z,1.40
2022-12-11T01:14:48.450Z,1.50
2022-12-11T01:17:18.776Z,1.40
2022-12-11T01:19:46.284Z,1.40
2022-12-11T01:22:13.703Z,1.50
2022-12-11T01:24:41.005Z,1.50
2022-12-11T01:27:08.727Z,1.50
2022-12-11T01:29:36.264Z,1.50
2022-12-11T01:32:03.928Z,1.50
2022-12-11T01:34:41.487Z,1.50
2022-12-11T01:37:10.371Z,1.60
2022-12-11T01:39:42.109Z,1.50
2022-12-11T01:42:18.302Z,1.50
2022-12-11T01:44:45.690Z,1.50
2022-12-11T01:47:13.415Z,1.50
2022-12-11T01:49:43.713Z,1.50
2022-12-11T01:52:21.697Z,1.50
2022-12-11T01:54:51.420Z,1.60
2022-12-11T01:57:18.733Z,1.50
2022-12-11T01:59:48.856Z,1.50
2022-12-11T02:02:33.536Z,1.50
2022-12-11T02:05:02.984Z,1.50
2022-12-11T02:07:44.471Z,1.50
2022-12-11T02:10:12.846Z,1.50
2022-12-11T02:13:04.358Z,1.50
2022-12-11T02:15:41.649Z,1.60
2022-12-11T02:18:34.568Z,1.60
2022-12-11T02:21:01.757Z,1.60
2022-12-11T02:23:47.079Z,1.50
2022-12-11T02:26:34.265Z,1.60
2022-12-11T02:29:05.539Z,1.60
2022-12-11T02:31:45.226Z,1.60
2022-12-11T02:34:24.859Z,1.60
2022-12-11T02:36:57.169Z,1.70
2022-12-11T02:39:27.070Z,1.70
2022-12-11T02:41:55.264Z,1.70
2022-12-11T02:44:30.499Z,1.70
2022-12-11T02:46:59.144Z,1.70
2022-12-11T02:49:28.222Z,1.70
2022-12-11T02:51:58.133Z,1.70
2022-12-11T02:54:33.421Z,1.70
2022-12-11T02:57:04.923Z,1.70
2022-12-11T02:59:44.339Z,1.80
2022-12-11T03:02:13.795Z,1.80
2022-12-11T03:04:42.157Z,1.80
2022-12-11T03:07:23.459Z,1.80
2022-12-11T03:09:51.515Z,1.80
2022-12-11T03:12:32.792Z,1.80
2022-12-11T03:15:03.067Z,1.80
2022-12-11T03:17:57.181Z,1.80
2022-12-11T03:21:03.716Z,1.80
2022-12-11T03:23:33.639Z,1.80
2022-12-11T03:26:08.997Z,1.80
2022-12-11T03:28:56.077Z,2.00
2022-12-11T03:31:40.795Z,1.80
2022-12-11T03:34:18.406Z,1.80
2022-12-11T03:36:48.656Z,2.00
2022-12-11T03:39:21.495Z,1.80
2022-12-11T03:41:50.753Z,2.00
2022-12-11T03:44:19.954Z,1.80
2022-12-11T03:46:49.390Z,1.90
2022-12-11T03:49:26.844Z,1.80
2022-12-11T03:51:56.849Z,2.00
2022-12-11T03:54:25.132Z,1.80
2022-12-11T03:56:56.122Z,1.90
2022-12-11T03:59:23.727Z,1.90
2022-12-11T04:01:51.460Z,2.00
2022-12-11T04:04:19.036Z,1.90
2022-12-11T04:06:46.690Z,1.90
2022-12-11T04:09:13.900Z,2.10
2022-12-11T04:11:43.150Z,1.90
2022-12-11T04:14:32.212Z,1.90
2022-12-11T04:17:00.895Z,1.90
2022-12-11T04:19:46.491Z,2.00
2022-12-11T04:22:34.328Z,2.00
2022-12-11T04:25:02.813Z,2.00
2022-12-11T04:28:02.055Z,2.00
2022-12-11T04:30:33.926Z,2.00
2022-12-11T04:33:02.343Z,1.90
2022-12-11T04:35:30.074Z,1.90
2022-12-11T04:37:57.505Z,2.00
2022-12-11T04:40:24.863Z,2.00
2022-12-11T04:42:52.177Z,2.00
2022-12-11T04:45:19.633Z,2.20
2022-12-11T04:47:46.906Z,2.00
2022-12-11T04:50:16.232Z,2.00
2022-12-11T04:52:44.014Z,1.90
2022-12-11T04:55:12.176Z,1.90
2022-12-11T04:57:39.818Z,1.90
2022-12-11T05:00:09.733Z,1.90
2022-12-11T05:02:38.302Z,1.90
2022-12-11T05:05:07.210Z,1.80
2022-12-11T05:07:34.335Z,1.90
2022-12-11T05:10:01.761Z,1.80
2022-12-11T05:12:29.808Z,1.80
2022-12-11T05:14:57.043Z,1.80
2022-12-11T05:17:24.472Z,1.80
2022-12-11T05:19:52.166Z,1.80
2022-12-11T05:22:19.405Z,1.80
2022-12-11T05:24:46.544Z,1.80
2022-12-11T05:27:13.695Z,1.80
2022-12-11T05:29:40.944Z,1.90
2022-12-11T05:32:08.441Z,1.70
2022-12-11T05:34:35.711Z,1.80
2022-12-11T05:37:02.928Z,1.80
2022-12-11T05:39:30.175Z,1.70
2022-12-11T05:41:57.377Z,1.80
2022-12-11T05:44:25.014Z,1.70
2022-12-11T05:46:52.263Z,1.70
2022-12-11T05:49:25.930Z,1.70
2022-12-11T05:51:56.268Z,1.80
2022-12-11T05:54:23.433Z,1.80
2022-12-11T05:56:51.423Z,1.80
2022-12-11T05:59:19.850Z,1.80
2022-12-11T06:01:47.259Z,1.80
2022-12-11T06:04:14.640Z,1.80
2022-12-11T06:06:43.845Z,1.80
2022-12-11T06:09:16.198Z,1.80
2022-12-11T06:11:43.493Z,1.80
2022-12-11T06:14:11.629Z,1.80
2022-12-11T06:16:38.904Z,1.80
2022-12-11T06:19:06.324Z,1.90
2022-12-11T06:21:34.172Z,1.90
2022-12-11T06:24:03.795Z,1.80
2022-12-11T06:26:32.113Z,1.80
2022-12-11T06:28:59.561Z,1.80
2022-12-11T06:31:26.904Z,1.90
2022-12-11T06:33:54.341Z,1.80
2022-12-11T06:36:23.267Z,1.80
2022-12-11T06:38:51.321Z,1.80
2022-12-11T06:41:18.747Z,1.80
2022-12-11T06:43:45.927Z,1.80
2022-12-11T06:46:18.449Z,1.80
2022-12-11T06:48:46.376Z,1.80
2022-12-11T06:51:18.352Z,1.80
2022-12-11T06:53:50.903Z,1.70
2022-12-11T06:56:18.048Z,1.80
2022-12-11T06:58:45.254Z,1.80
2022-12-11T07:01:18.474Z,1.90
2022-12-11T07:03:45.805Z,1.80
2022-12-11T07:06:13.876Z,1.80
2022-12-11T07:08:41.519Z,1.80
2022-12-11T07:11:14.589Z,1.80
2022-12-11T07:13:44.606Z,1.80
2022-12-11T07:16:14.101Z,1.70
2022-12-11T07:18:43.757Z,1.80
2022-12-11T07:21:13.170Z,1.80
2022-12-11T07:23:40.932Z,1.80
2022-12-11T07:26:11.398Z,1.80
2022-12-11T07:28:39.001Z,1.80
2022-12-11T07:31:08.165Z,1.80
2022-12-11T07:33:35.361Z,1.80
2022-12-11T07:36:07.410Z,1.80
2022-12-11T07:38:34.668Z,1.90
2022-12-11T07:41:06.735Z,1.90
2022-12-11T07:43:35.274Z,1.80
2022-12-11T07:46:12.069Z,1.90
2022-12-11T07:48:41.897Z,1.90
2022-12-11T07:51:15.779Z,1.90
2022-12-11T07:53:45.952Z,1.90
2022-12-11T07:56:13.696Z,1.90
2022-12-11T07:58:40.816Z,1.90
2022-12-11T08:01:40.763Z,1.90
2022-12-11T08:04:09.908Z,1.90
2022-12-11T08:06:39.618Z,1.90
2022-12-11T08:09:09.716Z,1.90
2022-12-11T08:11:37.290Z,2.00
2022-12-11T08:14:06.579Z,1.90
2022-12-11T08:16:33.742Z,1.90
2022-12-11T08:19:00.990Z,1.90
2022-12-11T08:21:29.528Z,1.90
2022-12-11T08:23:56.725Z,1.90
2022-12-11T08:26:27.025Z,1.90
2022-12-11T08:28:54.605Z,1.90
2022-12-11T08:31:22.517Z,1.90
2022-12-11T08:33:50.957Z,1.90
2022-12-11T08:36:21.250Z,1.90
2022-12-11T08:38:51.048Z,2.10
2022-12-11T08:41:21.256Z,2.00
2022-12-11T08:43:49.649Z,2.00
2022-12-11T08:46:16.907Z,2.00
2022-12-11T08:48:44.320Z,2.00
2022-12-11T08:51:14.408Z,2.00
2022-12-11T08:53:41.980Z,2.00
2022-12-11T08:56:15.436Z,2.10
2022-12-11T08:58:43.930Z,2.00
2022-12-11T09:01:17.935Z,2.10
2022-12-11T09:03:45.263Z,2.00
2022-12-11T09:06:15.814Z,2.10
2022-12-11T09:08:51.739Z,2.10
2022-12-11T09:11:23.055Z,2.10
2022-12-11T09:13:50.937Z,2.10
2022-12-11T09:16:20.928Z,2.10
2022-12-11T09:18:50.232Z,2.10
2022-12-11T09:21:20.596Z,2.10
2022-12-11T09:23:48.433Z,2.10
2022-12-11T09:26:17.750Z,2.10
2022-12-11T09:28:47.248Z,2.20
2022-12-11T09:31:36.403Z,2.20
2022-12-11T09:34:09.079Z,2.20
2022-12-11T09:36:41.287Z,2.20
2022-12-11T09:39:12.811Z,2.20
2022-12-11T09:42:00.739Z,2.20
2022-12-11T09:44:52.753Z,2.20
2022-12-11T09:47:42.722Z,2.20
2022-12-11T09:50:09.982Z,2.20
2022-12-11T09:52:49.177Z,2.20
2022-12-11T09:55:24.286Z,2.30
2022-12-11T09:58:27.919Z,2.20
2022-12-11T10:01:05.390Z,2.30
2022-12-11T10:03:51.880Z,2.30
2022-12-11T10:07:00.212Z,2.30
2022-12-11T10:09:49.056Z,2.30
2022-12-11T10:12:36.045Z,2.30
2022-12-11T10:15:37.186Z,2.30
2022-12-11T10:18:16.366Z,2.40
2022-12-11T10:20:45.306Z,2.40
2022-12-11T10:23:22.195Z,2.60
2022-12-11T10:26:05.878Z,2.50
2022-12-11T10:28:33.116Z,2.50
2022-12-11T10:31:14.357Z,2.50
2022-12-11T10:34:02.636Z,2.50
2022-12-11T10:36:37.241Z,2.60
2022-12-11T10:39:20.097Z,2.60
2022-12-11T10:41:50.235Z,2.60
2022-12-11T10:44:29.420Z,2.60
2022-12-11T10:47:13.771Z,2.60
2022-12-11T10:50:01.984Z,2.60
2022-12-11T10:52:33.325Z,2.70
2022-12-11T10:55:04.503Z,2.60
2022-12-11T10:57:37.033Z,2.60
2022-12-11T11:00:06.933Z,2.70
2022-12-11T11:02:40.363Z,2.70
2022-12-11T11:05:29.067Z,2.80
2022-12-11T11:08:21.521Z,2.80
2022-12-11T11:10:55.596Z,2.80
2022-12-11T11:13:25.104Z,2.80
2022-12-11T11:16:07.821Z,2.90
2022-12-11T11:18:35.308Z,2.90
2022-12-11T11:21:03.303Z,2.80
2022-12-11T11:23:30.490Z,2.90
2022-12-11T11:26:09.077Z,3.00
2022-12-11T11:29:02.801Z,2.90
2022-12-11T11:31:36.734Z,2.90
2022-12-11T11:34:20.073Z,2.90
2022-12-11T11:36:55.739Z,2.90
2022-12-11T11:39:34.126Z,2.90
2022-12-11T11:42:09.936Z,2.90
2022-12-11T11:44:47.148Z,2.90
2022-12-11T11:47:27.903Z,2.90
